Time;durP1;ratioP1;P1;durP2;ratioP2;P2;SDS_P1;SDS_P2;PMS_P1;PMS_P2;Temp;Humidity;BMP_temperature;BMP_pressure;BME280_temperature;BME280_humidity;BME280_pressure;Samples;Min_cycle;Max_cycle;Signal;HPM_P1;HPM_P2
2023/10/11 00:00:56;;;;;;;8.77;4.47;;;18.20;99.90;;;;;;5032209;28;20279;-63
2023/10/11 00:05:54;;;;;;;8.98;4.15;;;18.20;99.90;;;;;;5032157;28;20251;-69
2023/10/11 00:08:26;;;;;;;5.53;3.28;;;18.10;99.90;;;;;;5025745;28;20340;-73
2023/10/11 00:10:58;;;;;;;6.40;3.50;;;18.10;99.90;;;;;;5030453;28;20196;-71
2023/10/11 00:13:33;;;;;;;5.00;2.97;;;18.10;99.90;;;;;;5031575;28;20279;-71
2023/10/11 00:16:07;;;;;;;7.50;3.38;;;18.20;99.90;;;;;;5032334;28;20315;-63
2023/10/11 00:18:40;;;;;;;9.82;3.33;;;18.10;99.90;;;;;;5032471;28;20207;-66
2023/10/11 00:21:10;;;;;;;7.60;3.08;;;18.10;99.90;;;;;;5021086;28;20287;-64
2023/10/11 00:23:46;;;;;;;5.03;2.70;;;18.10;99.90;;;;;;5031469;28;20251;-64
2023/10/11 00:26:17;;;;;;;10.65;3.17;;;18.00;99.90;;;;;;5030494;28;20227;-71
2023/10/11 00:28:54;;;;;;;6.25;3.03;;;18.00;99.90;;;;;;5020697;28;20215;-71
2023/10/11 00:31:21;;;;;;;9.98;3.25;;;18.00;99.90;;;;;;5014414;28;20230;-73
2023/10/11 00:33:48;;;;;;;6.18;3.10;;;18.00;99.90;;;;;;5014364;28;20657;-70
2023/10/11 00:36:16;;;;;;;4.38;2.95;;;17.90;99.90;;;;;;5032531;28;20257;-71
2023/10/11 00:38:48;;;;;;;8.05;3.05;;;17.90;99.90;;;;;;5032997;28;20279;-71
2023/10/11 00:41:19;;;;;;;6.60;3.13;;;17.90;99.90;;;;;;5035125;28;20734;-69
2023/10/11 00:43:50;;;;;;;8.15;3.17;;;17.80;99.90;;;;;;5022811;28;20197;-71
2023/10/11 00:46:23;;;;;;;9.35;3.38;;;17.80;99.90;;;;;;5021108;28;20207;-70
2023/10/11 00:48:54;;;;;;;7.60;2.92;;;17.80;99.90;;;;;;5030145;28;20263;-70
2023/10/11 00:51:29;;;;;;;7.13;3.10;;;17.80;99.90;;;;;;5026962;28;20189;-73
2023/10/11 00:53:59;;;;;;;5.68;3.35;;;17.80;99.90;;;;;;5030022;28;20192;-70
2023/10/11 00:56:31;;;;;;;7.68;3.40;;;17.70;99.90;;;;;;5016359;28;20287;-71
2023/10/11 00:59:14;;;;;;;7.07;3.83;;;17.60;99.90;;;;;;5019615;28;20200;-70
2023/10/11 01:01:42;;;;;;;4.43;2.78;;;17.70;99.90;;;;;;5022176;28;20200;-81
2023/10/11 01:04:12;;;;;;;5.90;3.40;;;17.80;99.90;;;;;;5021276;28;20759;-67
2023/10/11 01:06:39;;;;;;;8.05;3.72;;;17.90;99.90;;;;;;5028356;28;20271;-73
2023/10/11 01:09:16;;;;;;;9.02;3.40;;;17.90;99.90;;;;;;5029562;28;20676;-78
2023/10/11 01:11:48;;;;;;;7.47;3.33;;;17.90;99.90;;;;;;5028396;28;20214;-77
2023/10/11 01:14:15;;;;;;;5.85;3.25;;;17.90;99.90;;;;;;5029916;28;20275;-72
2023/10/11 01:16:43;;;;;;;7.85;3.05;;;17.90;99.90;;;;;;5024673;28;20247;-71
2023/10/11 01:19:11;;;;;;;5.38;2.70;;;17.90;99.90;;;;;;5023134;28;20212;-76
2023/10/11 01:21:39;;;;;;;7.85;3.28;;;17.80;99.90;;;;;;5026162;28;20196;-74
2023/10/11 01:24:09;;;;;;;5.40;3.20;;;17.80;99.90;;;;;;5028435;28;20239;-71
2023/10/11 01:26:37;;;;;;;5.65;3.15;;;17.70;99.90;;;;;;5028458;28;20565;-69
2023/10/11 01:29:05;;;;;;;5.22;2.90;;;17.70;99.90;;;;;;5040929;28;20688;-63
2023/10/11 01:31:34;;;;;;;6.88;3.53;;;17.70;99.90;;;;;;5022728;28;20185;-71
2023/10/11 01:34:02;;;;;;;7.10;3.28;;;17.60;99.90;;;;;;5012078;28;20196;-63
2023/10/11 01:36:30;;;;;;;3.85;2.45;;;17.60;99.90;;;;;;5025771;28;20616;-66
2023/10/11 01:39:08;;;;;;;5.50;2.70;;;17.60;99.90;;;;;;5018858;28;20223;-63
2023/10/11 01:41:40;;;;;;;6.85;3.70;;;17.50;99.90;;;;;;5030011;28;20192;-63
2023/10/11 01:44:08;;;;;;;8.50;4.07;;;17.60;99.90;;;;;;5027422;28;20196;-64
2023/10/11 01:46:35;;;;;;;8.95;3.50;;;17.70;99.90;;;;;;5027529;28;20227;-63
2023/10/11 01:49:05;;;;;;;6.68;3.90;;;17.70;99.90;;;;;;5028263;28;20220;-64
2023/10/11 01:51:38;;;;;;;4.90;3.22;;;17.70;99.90;;;;;;5026671;28;20718;-74
2023/10/11 01:54:11;;;;;;;6.57;3.15;;;17.70;99.90;;;;;;5023722;28;20252;-67
2023/10/11 01:56:39;;;;;;;5.47;3.45;;;17.60;99.90;;;;;;5029613;28;20196;-70
2023/10/11 01:59:07;;;;;;;5.72;3.28;;;17.50;99.90;;;;;;5009358;28;20207;-70
2023/10/11 02:05:34;;;;;;;6.63;3.38;;;17.50;99.90;;;;;;5020152;28;20207;-63
2023/10/11 02:08:06;;;;;;;4.85;2.85;;;17.50;99.90;;;;;;5028395;28;20297;-64
2023/10/11 02:10:36;;;;;;;4.93;3.15;;;17.50;99.90;;;;;;5027891;28;20246;-64
2023/10/11 02:13:05;;;;;;;9.35;3.30;;;17.50;99.90;;;;;;5025475;28;20692;-64
2023/10/11 02:15:34;;;;;;;4.68;3.15;;;17.50;99.90;;;;;;5023145;28;20211;-63
2023/10/11 02:18:08;;;;;;;4.65;3.08;;;17.50;99.90;;;;;;5024969;28;20204;-63
2023/10/11 02:20:44;;;;;;;7.57;3.70;;;17.50;99.90;;;;;;5021033;28;20203;-63
2023/10/11 02:23:11;;;;;;;6.63;3.63;;;17.60;99.90;;;;;;5029035;28;20231;-63
2023/10/11 02:25:41;;;;;;;5.05;3.20;;;17.70;99.90;;;;;;5027801;28;20200;-63
2023/10/11 02:28:09;;;;;;;5.60;3.45;;;17.60;99.90;;;;;;5028019;28;20196;-64
2023/10/11 02:30:38;;;;;;;8.63;3.30;;;17.70;99.90;;;;;;5026839;28;20199;-64
2023/10/11 02:33:07;;;;;;;7.40;3.20;;;17.90;99.90;;;;;;5022582;28;20624;-64
2023/10/11 02:35:55;;;;;;;6.15;3.78;;;18.00;99.90;;;;;;5015344;28;20220;-63
2023/10/11 02:38:23;;;;;;;7.20;3.40;;;18.00;99.90;;;;;;5027138;28;20200;-63
2023/10/11 02:40:56;;;;;;;9.70;3.03;;;18.00;99.90;;;;;;5026195;28;20207;-62
2023/10/11 02:43:25;;;;;;;12.57;3.42;;;18.00;99.90;;;;;;5022984;28;20683;-63
2023/10/11 02:45:53;;;;;;;8.40;3.08;;;17.90;99.90;;;;;;5029085;28;21191;-68
2023/10/11 02:48:20;;;;;;;6.38;3.28;;;18.00;99.90;;;;;;5028021;28;20287;-73
2023/10/11 02:50:49;;;;;;;8.55;4.03;;;18.00;99.90;;;;;;5024233;28;20255;-70
2023/10/11 02:53:22;;;;;;;6.25;3.35;;;17.90;99.90;;;;;;5029180;28;20660;-63
2023/10/11 02:56:03;;;;;;;8.63;3.63;;;17.80;99.90;;;;;;5016164;28;20271;-63
2023/10/11 02:58:30;;;;;;;7.32;3.25;;;17.80;99.90;;;;;;5029740;28;20675;-63
2023/10/11 03:01:04;;;;;;;6.60;3.45;;;17.90;99.90;;;;;;5035472;28;20656;-62
2023/10/11 03:03:49;;;;;;;7.45;3.22;;;17.90;99.90;;;;;;5027004;28;20280;-72
2023/10/11 03:06:18;;;;;;;8.45;4.07;;;17.80;99.90;;;;;;5027730;28;20589;-63
2023/10/11 03:08:51;;;;;;;5.05;3.53;;;17.80;99.90;;;;;;5027098;28;20240;-63
2023/10/11 03:11:21;;;;;;;9.57;3.30;;;17.70;99.90;;;;;;5028133;28;20648;-63
2023/10/11 03:13:48;;;;;;;8.50;3.58;;;17.80;99.90;;;;;;5027399;28;20722;-63
2023/10/11 03:16:17;;;;;;;4.75;3.05;;;17.80;99.90;;;;;;5027678;28;20632;-64
2023/10/11 03:18:47;;;;;;;7.50;4.00;;;17.70;99.90;;;;;;5028480;28;20600;-64
2023/10/11 03:21:19;;;;;;;10.50;3.38;;;17.70;99.90;;;;;;5027931;28;20792;-63
2023/10/11 03:23:48;;;;;;;6.68;3.35;;;17.80;99.90;;;;;;5029255;28;20200;-63
2023/10/11 03:26:19;;;;;;;9.25;3.83;;;17.70;99.90;;;;;;5029069;28;20279;-63
2023/10/11 03:28:56;;;;;;;6.95;3.50;;;17.60;99.90;;;;;;5031103;28;20625;-64
2023/10/11 03:31:24;;;;;;;8.50;4.18;;;17.50;99.90;;;;;;5018530;28;20204;-70
2023/10/11 03:33:51;;;;;;;9.45;3.88;;;17.50;99.90;;;;;;5031181;28;20192;-69
2023/10/11 03:36:20;;;;;;;7.82;3.60;;;17.50;99.90;;;;;;5031900;28;20585;-70
2023/10/11 03:38:53;;;;;;;6.80;3.55;;;17.50;99.90;;;;;;5031196;28;20204;-70
2023/10/11 03:41:30;;;;;;;7.57;3.65;;;17.30;99.90;;;;;;5029102;28;20274;-70
2023/10/11 03:44:12;;;;;;;6.00;3.72;;;17.30;99.90;;;;;;5031971;28;20261;-70
2023/10/11 03:46:47;;;;;;;5.65;3.50;;;17.20;99.90;;;;;;5033477;28;20726;-64
2023/10/11 03:51:48;;;;;;;8.52;3.75;;;17.20;99.90;;;;;;5030013;28;20687;-63
2023/10/11 03:54:24;;;;;;;5.40;3.25;;;17.20;99.90;;;;;;5033148;28;20275;-63
2023/10/11 03:56:53;;;;;;;12.43;3.78;;;17.20;99.90;;;;;;5031883;28;20192;-71
2023/10/11 03:59:25;;;;;;;8.32;3.47;;;17.10;99.90;;;;;;5006016;28;20562;-72
2023/10/11 04:01:59;;;;;;;5.70;3.30;;;17.20;99.90;;;;;;5040898;28;20653;-72
2023/10/11 04:04:26;;;;;;;6.25;3.53;;;17.10;99.90;;;;;;5033383;28;20660;-72
2023/10/11 04:07:01;;;;;;;9.13;3.63;;;17.20;99.90;;;;;;5028468;28;20606;-74
2023/10/11 04:09:37;;;;;;;9.27;3.33;;;17.20;99.90;;;;;;5026071;28;20839;-78
2023/10/11 04:12:04;;;;;;;5.78;3.45;;;17.10;99.90;;;;;;5031251;28;20277;-76
2023/10/11 04:14:44;;;;;;;7.00;3.78;;;17.00;99.90;;;;;;5030813;28;20184;-71
2023/10/11 04:20:17;;;;;;;6.72;3.45;;;17.10;99.90;;;;;;5030491;28;20566;-73
2023/10/11 04:22:57;;;;;;;6.88;3.22;;;17.00;99.90;;;;;;5029462;28;20213;-72
2023/10/11 04:25:24;;;;;;;5.18;3.40;;;17.10;99.90;;;;;;5029493;28;20200;-72
2023/10/11 04:27:57;;;;;;;7.65;3.50;;;17.10;99.90;;;;;;5033076;28;20203;-72
2023/10/11 04:30:40;;;;;;;6.40;3.42;;;17.10;99.90;;;;;;5034429;28;20591;-71
2023/10/11 04:33:12;;;;;;;6.25;3.50;;;17.10;99.90;;;;;;5032519;28;20226;-72
2023/10/11 04:35:42;;;;;;;8.25;3.50;;;17.10;99.90;;;;;;5032270;28;20196;-70
2023/10/11 04:38:13;;;;;;;5.95;3.22;;;17.20;99.90;;;;;;5031610;28;20195;-71
2023/10/11 04:40:51;;;;;;;5.35;3.42;;;17.20;99.90;;;;;;5029355;28;20200;-64
2023/10/11 04:43:25;;;;;;;8.63;3.58;;;17.10;99.90;;;;;;5031305;28;20200;-67
2023/10/11 04:45:55;;;;;;;5.65;3.92;;;17.10;99.90;;;;;;5019200;28;20234;-66
2023/10/11 04:48:36;;;;;;;6.45;3.28;;;17.00;99.90;;;;;;5031673;28;20604;-64
2023/10/11 04:59:07;;;;;;;6.10;3.33;;;17.00;99.90;;;;;;5028767;28;20656;-64
2023/10/11 05:04:15;;;;;;;7.55;3.92;;;17.00;99.90;;;;;;5031827;28;20184;-71
2023/10/11 05:06:44;;;;;;;6.57;3.83;;;17.00;99.90;;;;;;5032624;28;20273;-71
2023/10/11 05:11:50;;;;;;;8.43;3.63;;;16.90;99.90;;;;;;5031923;28;20193;-71
2023/10/11 05:14:29;;;;;;;7.80;3.67;;;16.80;99.90;;;;;;5031584;28;20224;-71
2023/10/11 05:19:56;;;;;;;7.25;3.58;;;16.80;99.90;;;;;;5030825;28;20200;-70
2023/10/11 05:22:35;;;;;;;8.55;3.53;;;16.70;99.90;;;;;;5026898;28;20263;-69
2023/10/11 05:32:41;;;;;;;8.10;3.60;;;16.90;99.90;;;;;;5031866;28;20198;-71
2023/10/11 05:51:40;;;;;;;6.28;3.88;;;16.90;99.90;;;;;;5028372;28;20196;-64
2023/10/11 05:54:08;;;;;;;6.65;3.80;;;16.90;99.90;;;;;;5028656;28;20204;-67
2023/10/11 05:56:38;;;;;;;8.45;3.42;;;17.00;99.90;;;;;;5029670;28;20684;-63
2023/10/11 05:59:10;;;;;;;7.05;3.67;;;17.00;99.90;;;;;;5028508;28;20192;-63
2023/10/11 06:01:37;;;;;;;10.43;4.00;;;17.10;99.90;;;;;;5028555;28;20196;-63
2023/10/11 06:04:04;;;;;;;13.73;3.75;;;17.30;99.90;;;;;;5029252;28;20246;-64
2023/10/11 06:06:38;;;;;;;7.47;3.67;;;17.40;99.90;;;;;;5027885;28;20227;-66
2023/10/11 06:09:05;;;;;;;10.27;4.18;;;17.50;99.90;;;;;;5028077;28;20553;-65
2023/10/11 06:11:36;;;;;;;10.15;4.13;;;17.60;99.90;;;;;;5025502;28;20216;-68
2023/10/11 06:14:06;;;;;;;8.80;4.20;;;17.80;99.90;;;;;;5027269;28;20216;-63
2023/10/11 06:16:37;;;;;;;11.23;5.25;;;17.90;99.90;;;;;;5027714;28;20188;-64
2023/10/11 06:19:17;;;;;;;10.18;4.10;;;18.30;99.90;;;;;;5018081;28;20219;-63
2023/10/11 06:21:59;;;;;;;7.32;4.88;;;18.50;99.90;;;;;;5029063;28;20215;-64
2023/10/11 06:24:33;;;;;;;5.90;3.97;;;18.50;99.90;;;;;;5027209;28;20183;-64
2023/10/11 06:29:39;;;;;;;6.03;3.50;;;18.80;99.90;;;;;;5031103;28;20211;-64
2023/10/11 06:32:11;;;;;;;10.23;4.07;;;19.10;99.90;;;;;;5024157;28;20192;-69
2023/10/11 06:34:47;;;;;;;6.88;3.75;;;19.30;99.90;;;;;;5012405;28;20193;-67
2023/10/11 06:37:19;;;;;;;6.55;4.13;;;19.10;99.90;;;;;;5029149;28;20707;-70
2023/10/11 06:42:21;;;;;;;8.90;3.80;;;18.70;99.90;;;;;;5029187;28;20220;-68
2023/10/11 06:44:52;;;;;;;5.57;3.70;;;18.60;99.90;;;;;;5013772;28;20230;-70
2023/10/11 06:47:21;;;;;;;6.50;3.40;;;18.80;99.90;;;;;;5027805;28;20203;-69
2023/10/11 06:49:56;;;;;;;8.00;3.97;;;19.20;99.90;;;;;;5026877;28;20703;-69
2023/10/11 06:52:25;;;;;;;16.27;4.07;;;19.40;99.90;;;;;;5027711;28;20188;-69
2023/10/11 06:57:40;;;;;;;5.30;3.10;;;19.30;99.90;;;;;;5029849;28;20296;-69
2023/10/11 07:00:28;;;;;;;5.20;3.35;;;19.10;99.90;;;;;;5029639;28;20283;-72
2023/10/11 07:05:50;;;;;;;6.57;3.40;;;19.40;99.90;;;;;;5037570;28;20250;-69
2023/10/11 07:08:20;;;;;;;7.85;3.83;;;19.60;99.90;;;;;;5027221;28;20830;-68
2023/10/11 07:11:16;;;;;;;7.28;3.88;;;19.50;99.90;;;;;;5037733;28;20573;-68
2023/10/11 07:13:49;;;;;;;9.48;3.42;;;19.50;99.90;;;;;;5035258;28;20518;-69
2023/10/11 07:16:20;;;;;;;6.45;3.38;;;19.70;99.90;;;;;;5030344;28;20283;-71
2023/10/11 07:18:54;;;;;;;13.13;3.65;;;19.70;99.90;;;;;;5034828;28;20203;-69
2023/10/11 07:21:25;;;;;;;4.93;2.97;;;19.70;99.90;;;;;;5032097;28;20296;-69
2023/10/11 07:26:23;;;;;;;6.78;3.33;;;19.90;99.90;;;;;;5033499;28;20195;-75
2023/10/11 07:28:52;;;;;;;8.85;3.90;;;20.00;99.90;;;;;;5027645;28;20195;-69
2023/10/11 07:31:27;;;;;;;8.45;4.20;;;20.10;99.90;;;;;;5030936;28;20232;-71
2023/10/11 07:33:57;;;;;;;6.03;3.75;;;20.10;99.90;;;;;;5037370;28;20207;-71
2023/10/11 07:36:25;;;;;;;8.20;3.45;;;20.30;99.90;;;;;;5036013;28;20219;-70
2023/10/11 07:38:55;;;;;;;4.85;3.35;;;20.30;99.90;;;;;;5029802;28;20282;-70
2023/10/11 07:41:29;;;;;;;9.38;4.63;;;20.40;99.90;;;;;;5029304;28;20223;-70
2023/10/11 07:43:57;;;;;;;7.80;3.75;;;20.60;99.90;;;;;;5030948;28;20730;-70
2023/10/11 07:46:24;;;;;;;10.25;3.75;;;20.50;99.90;;;;;;5035691;28;20184;-70
2023/10/11 07:49:03;;;;;;;10.57;5.00;;;20.70;99.90;;;;;;5015463;28;20208;-71
2023/10/11 07:51:35;;;;;;;6.97;3.55;;;20.70;99.90;;;;;;5039208;28;20223;-68
2023/10/11 07:54:11;;;;;;;10.88;3.72;;;20.90;99.90;;;;;;5035965;28;20274;-70
2023/10/11 07:56:38;;;;;;;9.07;5.15;;;20.80;99.90;;;;;;5034371;28;20203;-70
2023/10/11 07:59:09;;;;;;;8.10;4.68;;;20.80;99.90;;;;;;5030815;28;20664;-70
2023/10/11 08:01:42;;;;;;;7.32;3.85;;;21.00;99.90;;;;;;5029660;28;20200;-70
2023/10/11 08:04:17;;;;;;;10.02;3.90;;;20.90;99.90;;;;;;5029603;28;20286;-70
2023/10/11 08:06:45;;;;;;;7.70;4.28;;;20.80;99.90;;;;;;5035709;28;20647;-70
2023/10/11 08:09:21;;;;;;;8.52;4.18;;;21.00;99.90;;;;;;5026129;28;20243;-74
2023/10/11 08:11:53;;;;;;;7.90;4.50;;;21.10;99.90;;;;;;5015259;28;20257;-72
2023/10/11 08:14:23;;;;;;;8.35;4.10;;;21.40;99.90;;;;;;5013079;28;20192;-70
2023/10/11 08:16:50;;;;;;;6.75;4.07;;;21.40;99.90;;;;;;5035269;28;20692;-71
2023/10/11 08:19:17;;;;;;;5.57;3.67;;;21.60;99.90;;;;;;5017300;28;20203;-69
2023/10/11 08:21:54;;;;;;;10.40;3.63;;;21.40;99.90;;;;;;5029648;28;20736;-70
2023/10/11 08:24:26;;;;;;;4.45;3.03;;;21.60;99.90;;;;;;5033691;28;20191;-70
2023/10/11 08:26:54;;;;;;;6.82;3.58;;;21.50;99.90;;;;;;5040694;28;20202;-63
2023/10/11 08:29:30;;;;;;;4.97;2.85;;;21.30;99.90;;;;;;5036509;28;20282;-63
2023/10/11 08:31:58;;;;;;;10.50;3.65;;;21.60;99.90;;;;;;5036395;28;20240;-63
2023/10/11 08:34:26;;;;;;;9.18;5.93;;;21.70;99.90;;;;;;5041158;28;20222;-64
2023/10/11 08:36:56;;;;;;;10.73;4.10;;;21.90;99.90;;;;;;5033112;28;20286;-70
2023/10/11 08:39:35;;;;;;;7.75;4.07;;;21.90;99.90;;;;;;5031478;28;20204;-69
2023/10/11 08:42:09;;;;;;;8.57;3.50;;;22.20;99.90;;;;;;5033334;28;20576;-70
2023/10/11 08:44:36;;;;;;;6.28;3.83;;;22.30;99.90;;;;;;5031865;28;20199;-71
2023/10/11 08:47:04;;;;;;;6.97;4.72;;;23.80;99.90;;;;;;5040462;28;20191;-69
2023/10/11 08:49:33;;;;;;;5.53;3.78;;;26.80;99.90;;;;;;5026439;28;20215;-69
2023/10/11 08:52:01;;;;;;;10.75;4.07;;;27.90;99.90;;;;;;5033970;28;20750;-70
2023/10/11 08:54:28;;;;;;;9.13;3.25;;;27.80;99.90;;;;;;5025143;28;20287;-70
2023/10/11 08:56:57;;;;;;;9.50;3.70;;;27.90;99.90;;;;;;5033480;28;20552;-71
2023/10/11 08:59:30;;;;;;;5.47;3.40;;;29.10;99.90;;;;;;5026463;28;20278;-70
2023/10/11 09:02:07;;;;;;;6.55;3.35;;;30.00;99.90;;;;;;5037971;28;20603;-70
2023/10/11 09:04:35;;;;;;;5.50;3.53;;;29.00;99.90;;;;;;5028320;28;20551;-70
2023/10/11 09:07:02;;;;;;;4.78;4.05;;;29.10;99.90;;;;;;5033317;28;20245;-70
2023/10/11 09:09:39;;;;;;;5.70;4.20;;;28.90;99.90;;;;;;5028669;28;20679;-69
2023/10/11 09:12:23;;;;;;;4.25;3.47;;;28.80;99.90;;;;;;5030847;28;20219;-70
2023/10/11 09:14:58;;;;;;;5.53;3.90;;;29.60;99.90;;;;;;5029253;28;20192;-70
2023/10/11 09:17:29;;;;;;;6.05;4.13;;;30.30;99.90;;;;;;5043216;28;20200;-70
2023/10/11 09:19:58;;;;;;;7.88;4.32;;;30.00;99.90;;;;;;5029864;28;20196;-73
2023/10/11 09:22:27;;;;;;;7.38;4.20;;;29.40;99.90;;;;;;5027761;28;20216;-70
2023/10/11 09:25:21;;;;;;;6.32;4.38;;;30.40;99.90;;;;;;5031210;28;20201;-70
2023/10/11 09:27:49;;;;;;;5.85;4.47;;;31.10;99.90;;;;;;5030727;28;20196;-71
2023/10/11 09:30:20;;;;;;;8.27;5.57;;;31.00;99.90;;;;;;5026006;28;20306;-69
2023/10/11 09:32:59;;;;;;;6.60;4.10;;;32.00;99.90;;;;;;5026228;28;20210;-68
2023/10/11 09:35:28;;;;;;;7.05;4.28;;;31.30;99.90;;;;;;5034632;28;20207;-68
2023/10/11 09:37:57;;;;;;;7.60;4.00;;;30.30;99.90;;;;;;5032828;28;20295;-69
2023/10/11 09:40:28;;;;;;;8.38;4.07;;;32.20;99.90;;;;;;5033970;28;20200;-68
2023/10/11 09:42:57;;;;;;;4.53;3.95;;;32.80;99.90;;;;;;5029998;28;20200;-69
2023/10/11 09:45:29;;;;;;;4.07;3.67;;;32.10;99.90;;;;;;5026700;28;20195;-69
2023/10/11 09:47:57;;;;;;;8.35;4.10;;;32.30;99.90;;;;;;5030275;28;20200;-68
2023/10/11 09:50:26;;;;;;;4.75;3.45;;;30.30;99.90;;;;;;5032771;28;20262;-79
2023/10/11 09:52:56;;;;;;;6.05;3.92;;;31.40;99.90;;;;;;5011609;28;21084;-69
2023/10/11 09:55:31;;;;;;;6.40;3.90;;;30.40;99.90;;;;;;5028349;28;20274;-70
2023/10/11 09:58:17;;;;;;;5.57;4.25;;;29.40;99.90;;;;;;5032293;28;20192;-69
2023/10/11 10:01:08;;;;;;;4.60;3.28;;;29.90;99.90;;;;;;5030219;28;20200;-68
2023/10/11 10:03:38;;;;;;;5.35;4.07;;;30.60;99.90;;;;;;5028814;28;20211;-70
2023/10/11 10:06:18;;;;;;;9.75;3.80;;;29.70;99.90;;;;;;5030145;28;20212;-70
2023/10/11 10:12:05;;;;;;;4.97;3.67;;;29.40;99.90;;;;;;5029422;28;20691;-70
2023/10/11 10:14:45;;;;;;;9.55;4.25;;;29.80;99.90;;;;;;5031243;28;20247;-72
2023/10/11 10:17:15;;;;;;;8.95;3.97;;;30.50;99.90;;;;;;5033227;28;20215;-69
2023/10/11 10:19:48;;;;;;;9.13;4.10;;;29.50;99.90;;;;;;5040829;28;20194;-69
2023/10/11 10:22:31;;;;;;;7.00;3.78;;;30.00;99.90;;;;;;5028532;28;20196;-69
2023/10/11 10:25:18;;;;;;;4.47;3.67;;;29.50;99.90;;;;;;5032214;28;20648;-69
2023/10/11 10:27:46;;;;;;;7.32;3.60;;;28.80;99.90;;;;;;5012613;28;20207;-69
2023/10/11 10:30:16;;;;;;;7.32;3.97;;;28.40;99.90;;;;;;5030479;28;20601;-69
2023/10/11 10:33:23;;;;;;;9.73;4.45;;;28.60;99.90;;;;;;5033853;28;20266;-70
2023/10/11 10:35:54;;;;;;;7.32;4.13;;;29.30;99.90;;;;;;5030035;28;20207;-69
2023/10/11 10:38:22;;;;;;;5.32;3.40;;;29.00;99.90;;;;;;5027115;28;20644;-68
2023/10/11 10:41:22;;;;;;;5.03;4.30;;;28.30;99.90;;;;;;5026128;28;20239;-68
2023/10/11 10:44:05;;;;;;;6.43;3.63;;;29.00;99.90;;;;;;5029058;28;20196;-69
2023/10/11 10:46:35;;;;;;;5.05;3.33;;;28.60;99.90;;;;;;5029731;28;20232;-65
2023/10/11 10:49:03;;;;;;;7.72;3.95;;;27.50;99.90;;;;;;5031680;28;20293;-67
2023/10/11 10:51:36;;;;;;;8.52;3.67;;;26.60;99.90;;;;;;5031708;28;20730;-64
2023/10/11 10:54:12;;;;;;;7.28;4.05;;;26.40;99.90;;;;;;5030923;28;20266;-64
2023/10/11 10:56:45;;;;;;;8.82;3.85;;;25.90;99.90;;;;;;5031667;28;20184;-69
2023/10/11 10:59:14;;;;;;;6.72;4.03;;;26.20;99.90;;;;;;5035480;28;20195;-68
2023/10/11 11:01:46;;;;;;;5.03;3.85;;;28.30;99.90;;;;;;5033673;28;20211;-67
2023/10/11 11:04:15;;;;;;;7.43;4.95;;;29.60;99.90;;;;;;5033580;28;20262;-69
2023/10/11 11:06:48;;;;;;;7.97;4.03;;;29.40;99.90;;;;;;5023646;28;20223;-67
2023/10/11 11:09:25;;;;;;;10.73;4.28;;;29.20;99.90;;;;;;5026022;28;20231;-68
2023/10/11 11:11:55;;;;;;;7.47;4.00;;;28.50;99.90;;;;;;5026250;28;20211;-69
2023/10/11 11:14:23;;;;;;;12.13;4.68;;;28.60;99.90;;;;;;5025329;28;20211;-69
2023/10/11 11:16:57;;;;;;;7.35;4.30;;;28.00;99.90;;;;;;5032617;28;20192;-70
2023/10/11 11:19:34;;;;;;;14.13;5.35;;;28.50;99.90;;;;;;5029673;28;20596;-69
2023/10/11 11:22:11;;;;;;;5.63;4.47;;;28.80;99.90;;;;;;5027314;28;20590;-71
2023/10/11 11:24:41;;;;;;;6.63;3.90;;;29.10;99.90;;;;;;5031188;28;20268;-70
2023/10/11 11:27:25;;;;;;;10.23;4.47;;;28.90;99.90;;;;;;5030512;28;20672;-69
2023/10/11 11:29:53;;;;;;;6.40;3.95;;;28.20;99.90;;;;;;5029493;28;20340;-70
2023/10/11 11:32:41;;;;;;;9.85;4.63;;;28.10;99.90;;;;;;5012739;28;20692;-67
2023/10/11 11:35:10;;;;;;;20.42;4.32;;;27.70;99.90;;;;;;5027038;28;20197;-65
2023/10/11 11:37:39;;;;;;;7.15;4.65;;;27.50;99.90;;;;;;5028741;28;20204;-64
2023/10/11 11:40:24;;;;;;;9.02;4.10;;;27.60;99.90;;;;;;5028097;28;20280;-65
2023/10/11 11:42:51;;;;;;;6.65;3.78;;;27.90;99.90;;;;;;5025388;28;20208;-65
2023/10/11 11:45:19;;;;;;;5.88;3.85;;;28.20;99.90;;;;;;5031459;28;20547;-65
2023/10/11 11:47:56;;;;;;;8.77;3.95;;;27.90;99.90;;;;;;5029495;28;20200;-64
2023/10/11 11:50:25;;;;;;;6.85;3.88;;;27.50;99.90;;;;;;5027662;28;20196;-64
2023/10/11 11:52:57;;;;;;;5.65;3.60;;;27.60;99.90;;;;;;5029981;28;20719;-66
2023/10/11 11:55:24;;;;;;;8.27;4.00;;;27.80;99.90;;;;;;5029541;28;20214;-64
2023/10/11 11:57:53;;;;;;;10.23;3.88;;;28.30;99.90;;;;;;5037715;28;20632;-64
2023/10/11 12:02:58;;;;;;;6.22;4.65;;;28.10;99.90;;;;;;5030652;28;20272;-64
2023/10/11 12:05:27;;;;;;;7.93;4.07;;;28.10;99.90;;;;;;5031820;28;20675;-65
2023/10/11 12:07:58;;;;;;;5.32;4.10;;;28.50;99.90;;;;;;5028595;28;20227;-66
2023/10/11 12:10:26;;;;;;;7.30;3.95;;;28.50;99.90;;;;;;5035746;28;20631;-65
2023/10/11 12:12:55;;;;;;;10.32;4.03;;;27.30;99.90;;;;;;5025848;28;20216;-65
2023/10/11 12:15:22;;;;;;;12.05;4.05;;;26.90;99.90;;;;;;5036029;28;20211;-64
2023/10/11 12:17:53;;;;;;;11.93;4.43;;;27.10;99.90;;;;;;5036588;28;20231;-65
2023/10/11 12:20:33;;;;;;;7.00;3.70;;;26.90;99.90;;;;;;5032588;28;20840;-64
2023/10/11 12:23:07;;;;;;;8.27;4.18;;;26.80;99.90;;;;;;5043411;28;20305;-65
2023/10/11 12:25:39;;;;;;;7.47;3.67;;;27.00;99.90;;;;;;5016740;28;20205;-67
2023/10/11 12:28:08;;;;;;;6.03;4.18;;;27.00;99.90;;;;;;5038507;28;20200;-66
2023/10/11 12:30:35;;;;;;;13.55;4.57;;;26.50;99.90;;;;;;5034378;28;20200;-66
2023/10/11 12:33:06;;;;;;;13.48;4.30;;;26.50;99.90;;;;;;5029606;28;20680;-64
2023/10/11 12:35:40;;;;;;;6.57;3.90;;;26.50;99.90;;;;;;5030793;28;20208;-65
2023/10/11 12:38:12;;;;;;;10.73;4.40;;;26.10;99.90;;;;;;5029527;28;20189;-65
2023/10/11 12:40:44;;;;;;;11.10;4.03;;;26.00;99.90;;;;;;5026644;28;20687;-69
2023/10/11 12:43:11;;;;;;;5.72;3.65;;;26.00;99.90;;;;;;5013056;28;20269;-65
2023/10/11 12:45:42;;;;;;;8.18;4.60;;;26.00;99.90;;;;;;5032124;28;20208;-66
2023/10/11 12:48:15;;;;;;;9.35;4.00;;;25.80;99.90;;;;;;5033157;28;20266;-65
2023/10/11 12:50:42;;;;;;;5.78;3.10;;;25.70;99.90;;;;;;5031749;28;20200;-66
2023/10/11 12:53:12;;;;;;;5.85;3.53;;;25.80;99.90;;;;;;5029529;28;20759;-65
2023/10/11 12:55:45;;;;;;;11.50;4.22;;;25.80;99.90;;;;;;5039999;28;20852;-67
2023/10/11 12:58:13;;;;;;;6.10;3.35;;;25.70;99.90;;;;;;5027457;28;20254;-65
2023/10/11 13:00:48;;;;;;;8.15;4.22;;;25.70;99.90;;;;;;5031222;28;20422;-66
2023/10/11 13:03:20;;;;;;;11.68;3.80;;;25.80;99.90;;;;;;5014995;28;20774;-66
2023/10/11 13:05:48;;;;;;;9.85;3.60;;;25.60;99.90;;;;;;5027596;28;20223;-68
2023/10/11 13:08:15;;;;;;;11.27;4.22;;;25.20;99.90;;;;;;5028535;28;20235;-65
2023/10/11 13:10:48;;;;;;;7.13;3.63;;;25.20;99.90;;;;;;5028289;28;20540;-64
2023/10/11 13:13:16;;;;;;;6.28;3.65;;;24.90;99.90;;;;;;5030060;28;20851;-63
2023/10/11 13:16:00;;;;;;;6.65;3.83;;;24.80;99.90;;;;;;5033877;28;20208;-65
2023/10/11 13:18:38;;;;;;;19.45;4.22;;;24.80;99.90;;;;;;5025571;28;20185;-65
2023/10/11 13:21:11;;;;;;;8.07;3.30;;;24.60;99.90;;;;;;5030575;28;20215;-63
2023/10/11 13:23:43;;;;;;;13.63;3.72;;;24.80;99.90;;;;;;5030161;28;20669;-67
2023/10/11 13:26:18;;;;;;;6.03;3.35;;;24.80;99.90;;;;;;5030086;28;20203;-67
2023/10/11 13:28:53;;;;;;;6.22;3.88;;;24.90;99.90;;;;;;5031883;28;20234;-65
2023/10/11 13:31:20;;;;;;;9.80;4.00;;;24.60;99.90;;;;;;5027466;28;20191;-66
2023/10/11 13:33:47;;;;;;;5.88;3.40;;;24.70;99.90;;;;;;5033555;28;20203;-65
2023/10/11 13:36:14;;;;;;;9.75;3.28;;;24.70;99.90;;;;;;5032132;28;20196;-63
2023/10/11 13:38:45;;;;;;;9.45;3.75;;;24.50;99.90;;;;;;5028636;28;20202;-65
2023/10/11 13:41:13;;;;;;;12.60;4.28;;;24.40;99.90;;;;;;5032543;28;20188;-63
2023/10/11 13:43:40;;;;;;;12.52;4.28;;;24.20;99.90;;;;;;5029166;28;20200;-64
2023/10/11 13:46:10;;;;;;;12.40;4.30;;;24.30;99.90;;;;;;5027956;28;20200;-65
2023/10/11 13:48:40;;;;;;;8.82;3.47;;;24.30;99.90;;;;;;5034854;28;20526;-68
2023/10/11 13:51:16;;;;;;;12.10;3.97;;;24.20;99.90;;;;;;5042208;28;20713;-65
2023/10/11 13:53:44;;;;;;;11.85;4.00;;;24.20;99.90;;;;;;5032289;28;20256;-64
2023/10/11 13:56:24;;;;;;;10.07;4.82;;;24.30;99.90;;;;;;5036389;28;20521;-65
2023/10/11 13:58:52;;;;;;;8.57;4.25;;;24.10;99.90;;;;;;5031221;28;20199;-65
2023/10/11 14:07:03;;;;;;;7.25;3.50;;;23.80;99.90;;;;;;5008366;28;20623;-65
2023/10/11 14:09:30;;;;;;;6.00;3.72;;;23.80;99.90;;;;;;5031529;28;21157;-66
2023/10/11 14:11:58;;;;;;;8.13;3.58;;;23.80;99.90;;;;;;5031023;28;20365;-65
2023/10/11 14:14:29;;;;;;;7.97;4.18;;;23.80;99.90;;;;;;5038629;28;20193;-65
2023/10/11 14:16:56;;;;;;;8.85;3.30;;;24.00;99.90;;;;;;5032508;28;20404;-74
2023/10/11 14:19:24;;;;;;;11.02;5.32;;;24.00;99.90;;;;;;5024621;28;20184;-74
2023/10/11 14:21:52;;;;;;;7.07;3.22;;;24.10;99.90;;;;;;5030883;28;20197;-73
2023/10/11 14:24:19;;;;;;;10.35;3.95;;;24.10;99.90;;;;;;5032074;28;20275;-74
2023/10/11 14:26:47;;;;;;;6.07;3.20;;;24.00;99.90;;;;;;5029442;28;20263;-64